This is the latest recevied weather packets stored in our database for station/object KG7FOQ-13. If no packets are shown the sender has not sent any weather packets the latest 10 day(s).
| Time | Temp. | Humidity | Pressure | Rain* | Wind** | Luminosity | Snow |
|---|---|---|---|---|---|---|---|
| 1777613681 | 6.67° C | 50% | 1019.5 hPa | 0 mm | - | - | - |
| 1777613381 | 6.11° C | 54% | 1019.5 hPa | 0 mm | - | - | - |
| 1777613080 | 5.56° C | 57% | 1019.4 hPa | 0 mm | - | - | - |
| 1777612778 | 5.56° C | 59% | 1019.5 hPa | 0 mm | - | - | - |
| 1777612478 | 6.11° C | 61% | 1019.5 hPa | 0 mm | - | - | - |
| 1777612173 | 7.22° C | 56% | 1019.4 hPa | 0 mm | - | - | - |
| 1777611871 | 7.78° C | 54% | 1019.5 hPa | 0 mm | - | - | - |
| 1777611567 | 7.22° C | 54% | 1019.5 hPa | 0 mm | - | - | - |
| 1777611267 | 6.67° C | 57% | 1019.6 hPa | 0 mm | - | - | - |
| 1777610966 | 6.67° C | 57% | 1019.4 hPa | 0 mm | - | - | - |
| 1777610666 | 6.11° C | 58% | 1019.4 hPa | 0 mm | - | - | - |
| 1777610365 | 5.56° C | 60% | 1019.4 hPa | 0 mm | - | - | - |
| 1777609764 | 6.67° C | 54% | 1019 hPa | 0 mm | - | - | - |
| 1777609464 | 7.22° C | 53% | 1019 hPa | 0 mm | - | - | - |
| 1777609163 | 7.22° C | 52% | 1018.9 hPa | 0 mm | - | - | - |
| 1777608863 | 7.22° C | 48% | 1018.8 hPa | 0 mm | - | - | - |
| 1777608562 | 7.78° C | 51% | 1018.7 hPa | 0 mm | - | - | - |
| 1777608262 | 7.78° C | 54% | 1018.7 hPa | 0 mm | - | - | - |
| 1777607961 | 8.33° C | 55% | 1018.6 hPa | 0 mm | - | - | - |
| 1777607661 | 8.89° C | 50% | 1018.5 hPa | 0 mm | - | - | - |
| 1777607360 | 8.89° C | 48% | 1018.5 hPa | 0 mm | - | - | - |
| 1777607060 | 9.44° C | 54% | 1018.2 hPa | 0 mm | - | - | - |
| 1777606759 | 10.56° C | 51% | 1018.4 hPa | 0 mm | - | - | - |
| 1777606459 | 11.67° C | 46% | 1018.2 hPa | 0 mm | - | - | - |
| 1777606158 | 11.67° C | 40% | 1018.1 hPa | 0 mm | - | - | - |
* Rain latest hour (hover to see other rain measurements)
** Current wind speed in m/s (hover to see current wind gust speed)